CKH2 weather

Rocanville Airport
Rocanville, Saskatchewan, Canada

Public forecast

Using degrees Celsius for public forecast. Weather courtesy of forecast.io.

METAR (pilot weather report)

Closest report is Yorkton Municipal Airport, 59.1 nm (109.4 km) NW. Retrieved 2019/05/19 17:00 UTC (57 minutes ago):

CYQV 191700Z AUTO 08010G19KT 020V100 9SM OVC048 10/M02 A3022 RMK SLP253

TAF (pilot weather forecast)

Closest forecast is Yorkton Municipal Airport, 59.1 nm (109.4 km) NW. Retrieved 2019/05/19 12:42 UTC (5 hours ago):

TAF CYQV 191138Z 1912/1924 34005KT P6SM FEW140 FM191600 06010KT P6SM SCT050 RMK FCST BASED ON AUTO OBS. NXT FCST BY 191800Z